Time;durP1;ratioP1;P1;durP2;ratioP2;P2;SDS_P1;SDS_P2;PMS_P1;PMS_P2;Temp;Humidity;BMP_temperature;BMP_pressure;BME280_temperature;BME280_humidity;BME280_pressure;Samples;Min_cycle;Max_cycle;Signal;HPM_P1;HPM_P2
2022/11/15 00:01:33;;;;;;;;;;;6.10;99.90;;;;;;5023015;28;19983;-74
2022/11/15 00:04:23;;;;;;;;;;;6.10;99.90;;;;;;5020683;28;19932;-74
2022/11/15 00:07:14;;;;;;;;;;;6.10;99.90;;;;;;5019094;28;19944;-74
2022/11/15 00:10:04;;;;;;;;;;;6.10;99.90;;;;;;5008739;28;19933;-75
2022/11/15 00:12:54;;;;;;;;;;;6.10;99.90;;;;;;5005677;28;19948;-74
2022/11/15 00:15:40;;;;;;;;;;;6.20;99.90;;;;;;5007585;28;20373;-74
2022/11/15 00:18:31;;;;;;;;;;;6.20;99.90;;;;;;5021657;28;19940;-74
2022/11/15 00:21:21;;;;;;;;;;;6.20;99.90;;;;;;5016082;28;19972;-74
2022/11/15 00:24:06;;;;;;;;;;;6.20;99.90;;;;;;5009560;28;20035;-74
2022/11/15 00:26:56;;;;;;;;;;;6.20;99.90;;;;;;5019765;28;19933;-74
2022/11/15 00:29:43;;;;;;;;;;;6.20;99.90;;;;;;5010995;28;19956;-73
2022/11/15 00:32:33;;;;;;;;;;;6.20;99.90;;;;;;5018280;28;19937;-74
2022/11/15 00:35:23;;;;;;;;;;;6.20;99.90;;;;;;5005575;28;19936;-73
2022/11/15 00:38:14;;;;;;;;;;;6.20;99.90;;;;;;5007624;28;20423;-74
2022/11/15 00:40:59;;;;;;;;;;;6.20;99.90;;;;;;5010206;28;19952;-74
2022/11/15 00:43:49;;;;;;;;;;;6.20;99.90;;;;;;5008774;28;20434;-74
2022/11/15 00:46:35;;;;;;;;;;;6.10;99.90;;;;;;5008442;28;20052;-74
2022/11/15 00:49:20;;;;;;;;;;;6.10;99.90;;;;;;5008935;28;19933;-74
2022/11/15 00:52:10;;;;;;;;;;;6.10;99.90;;;;;;5008858;28;20011;-76
2022/11/15 00:55:00;;;;;;;;;;;6.00;99.90;;;;;;5009182;28;19932;-74
2022/11/15 00:57:50;;;;;;;;;;;6.00;99.90;;;;;;5015949;28;20019;-74
2022/11/15 01:00:35;;;;;;;;;;;5.90;99.90;;;;;;5015814;28;19932;-73
2022/11/15 01:03:26;;;;;;;;;;;5.90;99.90;;;;;;5020729;28;19933;-74
2022/11/15 01:06:16;;;;;;;;;;;5.90;99.90;;;;;;5009947;28;19932;-74
2022/11/15 01:09:01;;;;;;;;;;;5.90;99.90;;;;;;5021237;28;19936;-75
2022/11/15 01:11:52;;;;;;;;;;;5.80;99.90;;;;;;5016730;28;19960;-74
2022/11/15 01:14:42;;;;;;;;;;;5.70;99.90;;;;;;5014674;28;20403;-76
2022/11/15 01:17:32;;;;;;;;;;;5.70;99.90;;;;;;5016602;28;19937;-75
2022/11/15 01:20:22;;;;;;;;;;;5.60;99.90;;;;;;5029211;28;20438;-74
2022/11/15 01:23:12;;;;;;;;;;;5.50;99.90;;;;;;5014540;28;19936;-75
2022/11/15 01:26:04;;;;;;;;;;;5.50;99.90;;;;;;5015951;28;20457;-74
2022/11/15 01:28:54;;;;;;;;;;;5.40;99.90;;;;;;5023793;28;20337;-74
2022/11/15 01:31:44;;;;;;;;;;;5.40;99.90;;;;;;5016524;28;19933;-73
2022/11/15 01:34:29;;;;;;;;;;;5.30;99.90;;;;;;5028053;28;20411;-75
2022/11/15 01:37:19;;;;;;;;;;;5.30;99.90;;;;;;5012620;28;20438;-74
2022/11/15 01:40:10;;;;;;;;;;;5.20;99.90;;;;;;5015681;28;19972;-74
2022/11/15 01:43:18;;;;;;;;;;;5.20;99.90;;;;;;5014882;28;19983;-74
2022/11/15 01:46:27;;;;;;;;;;;5.10;99.90;;;;;;5012654;28;19936;-74
2022/11/15 01:49:19;;;;;;;;;;;5.00;99.90;;;;;;5013574;28;19933;-74
2022/11/15 01:52:12;;;;;;;;;;;5.00;99.90;;;;;;5012116;28;20023;-75
2022/11/15 01:55:35;;;;;;;;;;;5.00;99.90;;;;;;5006520;28;19983;-74
2022/11/15 01:58:25;;;;;;;;;;;5.00;99.90;;;;;;5013805;28;19936;-74
2022/11/15 02:01:15;;;;;;;;;;;5.00;99.90;;;;;;5016129;28;20300;-75
2022/11/15 02:04:16;;;;;;;;;;;5.00;99.90;;;;;;5013910;28;20010;-74
2022/11/15 02:07:08;;;;;;;;;;;5.00;99.90;;;;;;5011151;28;19952;-73
2022/11/15 02:09:59;;;;;;;;;;;5.00;99.90;;;;;;5011612;28;19948;-74
2022/11/15 02:12:50;;;;;;;;;;;5.00;99.90;;;;;;5003303;28;19932;-74
2022/11/15 02:15:44;;;;;;;;;;;4.90;99.90;;;;;;5007005;28;20600;-74
2022/11/15 02:18:35;;;;;;;;;;;4.90;99.90;;;;;;5010129;28;19936;-74
2022/11/15 02:21:34;;;;;;;;;;;4.90;99.90;;;;;;5016565;28;19931;-75
2022/11/15 02:24:33;;;;;;;;;;;4.80;99.90;;;;;;5007413;28;19932;-74
2022/11/15 02:27:23;;;;;;;;;;;4.80;99.90;;;;;;5010899;28;19932;-74
2022/11/15 02:30:17;;;;;;;;;;;4.80;99.90;;;;;;5014025;28;19956;-74
2022/11/15 02:33:27;;;;;;;;;;;4.80;99.90;;;;;;5008418;28;19933;-74
2022/11/15 02:36:23;;;;;;;;;;;4.80;99.90;;;;;;5003687;28;20327;-75
2022/11/15 02:39:36;;;;;;;;;;;4.80;99.90;;;;;;5010258;28;20024;-74
2022/11/15 02:45:44;;;;;;;;;;;4.70;99.90;;;;;;5010177;28;20343;-74
2022/11/15 02:48:31;;;;;;;;;;;4.70;99.90;;;;;;5024823;28;19932;-74
2022/11/15 02:51:21;;;;;;;;;;;4.70;99.90;;;;;;5010955;28;19933;-74
2022/11/15 02:54:14;;;;;;;;;;;4.60;99.90;;;;;;5023500;28;19944;-74
2022/11/15 02:57:04;;;;;;;;;;;4.50;99.90;;;;;;5009177;28;19935;-76
2022/11/15 03:00:14;;;;;;;;;;;4.40;99.90;;;;;;5008746;28;19958;-75
2022/11/15 03:03:04;;;;;;;;;;;4.40;99.90;;;;;;5011666;28;19932;-74
2022/11/15 03:05:58;;;;;;;;;;;4.40;99.90;;;;;;5024442;28;19940;-74
2022/11/15 03:09:03;;;;;;;;;;;4.30;99.90;;;;;;5019942;28;20443;-74
2022/11/15 03:11:56;;;;;;;;;;;4.20;99.90;;;;;;5011139;28;20030;-74
2022/11/15 03:14:54;;;;;;;;;;;4.00;99.90;;;;;;5005494;28;19933;-74
2022/11/15 03:17:42;;;;;;;;;;;3.90;99.90;;;;;;5011068;28;19931;-75
2022/11/15 03:20:34;;;;;;;;;;;3.90;99.90;;;;;;5015295;28;20390;-75
2022/11/15 03:23:25;;;;;;;;;;;3.80;99.90;;;;;;5009577;28;19932;-74
2022/11/15 03:26:16;;;;;;;;;;;3.80;99.90;;;;;;5021694;28;19975;-74
2022/11/15 03:29:12;;;;;;;;;;;3.90;99.90;;;;;;5011358;28;19933;-74
2022/11/15 03:32:09;;;;;;;;;;;3.90;99.90;;;;;;5007538;28;19940;-74
2022/11/15 03:35:02;;;;;;;;;;;4.00;99.90;;;;;;5017240;28;20023;-74
2022/11/15 03:38:11;;;;;;;;;;;4.00;99.90;;;;;;5010068;28;19951;-75
2022/11/15 03:41:01;;;;;;;;;;;4.00;99.90;;;;;;5020474;28;19933;-75
2022/11/15 03:44:01;;;;;;;;;;;3.90;99.90;;;;;;5017939;28;19937;-75
2022/11/15 03:46:57;;;;;;;;;;;3.90;99.90;;;;;;5003989;28;19933;-75
2022/11/15 03:49:50;;;;;;;;;;;3.90;99.90;;;;;;5009086;28;19931;-74
2022/11/15 03:52:36;;;;;;;;;;;3.90;99.90;;;;;;5010120;28;19983;-74
2022/11/15 03:55:26;;;;;;;;;;;3.80;99.90;;;;;;5007278;28;19932;-73
2022/11/15 03:58:12;;;;;;;;;;;3.80;99.90;;;;;;5023103;28;19932;-75
2022/11/15 04:00:59;;;;;;;;;;;3.80;99.90;;;;;;5009733;28;19931;-76
2022/11/15 04:03:49;;;;;;;;;;;3.80;99.90;;;;;;5009643;28;20088;-74
2022/11/15 04:06:34;;;;;;;;;;;3.80;99.90;;;;;;5006963;28;19933;-74
2022/11/15 04:09:24;;;;;;;;;;;3.80;99.90;;;;;;5008944;28;20149;-75
2022/11/15 04:12:09;;;;;;;;;;;3.80;99.90;;;;;;5019295;28;19933;-74
2022/11/15 04:15:08;;;;;;;;;;;3.70;99.90;;;;;;5021812;28;20071;-74
2022/11/15 04:17:59;;;;;;;;;;;3.70;99.90;;;;;;5022523;28;19932;-74
2022/11/15 04:26:54;;;;;;;;;;;3.70;99.90;;;;;;5002896;28;19936;-74
2022/11/15 04:29:39;;;;;;;;;;;3.70;99.90;;;;;;5022354;28;19933;-74
2022/11/15 04:32:24;;;;;;;;;;;3.70;99.90;;;;;;5010416;28;20402;-76
2022/11/15 04:35:14;;;;;;;;;;;3.70;99.90;;;;;;5007666;28;19932;-75
2022/11/15 04:38:05;;;;;;;;;;;3.70;99.90;;;;;;5022765;28;19933;-74
2022/11/15 04:40:55;;;;;;;;;;;3.70;99.90;;;;;;5009901;28;20533;-74
2022/11/15 04:43:46;;;;;;;;;;;3.60;99.90;;;;;;5010107;28;20473;-73
2022/11/15 04:46:36;;;;;;;;;;;3.60;99.90;;;;;;5000894;28;20030;-74
2022/11/15 04:49:26;;;;;;;;;;;3.50;99.90;;;;;;5009318;28;19967;-73
2022/11/15 04:52:16;;;;;;;;;;;3.50;99.90;;;;;;5013991;28;20041;-73
2022/11/15 04:55:07;;;;;;;;;;;3.50;99.90;;;;;;5017883;28;20434;-74
2022/11/15 04:57:58;;;;;;;;;;;3.50;99.90;;;;;;5009650;28;19971;-74
2022/11/15 05:00:48;;;;;;;;;;;3.40;99.90;;;;;;5008777;28;19948;-73
2022/11/15 05:06:42;;;;;;;;;;;3.40;99.90;;;;;;5009452;28;19932;-75
2022/11/15 05:09:27;;;;;;;;;;;3.40;99.90;;;;;;5005607;28;19937;-76
2022/11/15 05:12:17;;;;;;;;;;;3.30;99.90;;;;;;5021067;28;20026;-75
2022/11/15 05:15:08;;;;;;;;;;;3.30;99.90;;;;;;5013042;28;20778;-75
2022/11/15 05:17:57;;;;;;;;;;;3.30;99.90;;;;;;5002489;28;19933;-74
2022/11/15 05:20:47;;;;;;;;;;;3.20;99.90;;;;;;5009805;28;19952;-74
2022/11/15 05:23:37;;;;;;;;;;;3.20;99.90;;;;;;5020655;28;19936;-74
2022/11/15 05:26:23;;;;;;;;;;;3.20;99.90;;;;;;5009633;28;19975;-72
2022/11/15 05:29:09;;;;;;;;;;;3.20;99.90;;;;;;5010240;28;19932;-74
2022/11/15 05:31:59;;;;;;;;;;;3.10;99.90;;;;;;5011103;28;19933;-73
2022/11/15 05:34:49;;;;;;;;;;;3.10;99.90;;;;;;5003338;28;19960;-73
2022/11/15 05:37:34;;;;;;;;;;;3.00;99.90;;;;;;5006201;28;19975;-73
2022/11/15 05:40:19;;;;;;;;;;;3.00;99.90;;;;;;5010461;28;19932;-72
2022/11/15 05:43:10;;;;;;;;;;;3.10;99.90;;;;;;5012117;28;20016;-74
2022/11/15 05:46:02;;;;;;;;;;;3.10;99.90;;;;;;5025061;28;19933;-73
2022/11/15 05:48:48;;;;;;;;;;;3.10;99.90;;;;;;5007804;28;19932;-72
2022/11/15 05:51:39;;;;;;;;;;;3.10;99.90;;;;;;5010309;28;20280;-76
2022/11/15 05:54:30;;;;;;;;;;;3.10;99.90;;;;;;5021410;28;19932;-73
2022/11/15 05:57:21;;;;;;;;;;;3.10;99.90;;;;;;5006741;28;20079;-75
2022/11/15 06:00:11;;;;;;;;;;;3.10;99.90;;;;;;5011825;28;19932;-74
2022/11/15 06:03:01;;;;;;;;;;;3.10;99.90;;;;;;5017342;28;20079;-73
2022/11/15 06:05:51;;;;;;;;;;;3.10;99.90;;;;;;5005118;28;20458;-74
2022/11/15 06:08:42;;;;;;;;;;;3.10;99.90;;;;;;5006949;28;20055;-75
2022/11/15 06:11:32;;;;;;;;;;;3.10;99.90;;;;;;5009298;28;19933;-73
2022/11/15 06:14:17;;;;;;;;;;;3.10;99.90;;;;;;5022189;28;19953;-74
2022/11/15 06:17:07;;;;;;;;;;;3.10;99.90;;;;;;5009439;28;19937;-75
2022/11/15 06:19:57;;;;;;;;;;;3.10;99.90;;;;;;5003206;28;20399;-73
2022/11/15 06:22:48;;;;;;;;;;;3.10;99.90;;;;;;5008300;28;19933;-74
2022/11/15 06:25:38;;;;;;;;;;;3.00;99.90;;;;;;5005967;28;19971;-74
2022/11/15 06:28:29;;;;;;;;;;;3.00;99.90;;;;;;5016925;28;19979;-76
2022/11/15 06:31:19;;;;;;;;;;;3.00;99.90;;;;;;5005767;28;20743;-75
2022/11/15 06:34:09;;;;;;;;;;;3.00;99.90;;;;;;5001870;28;20031;-74
2022/11/15 06:36:54;;;;;;;;;;;3.00;99.90;;;;;;4998922;28;19937;-74
2022/11/15 06:39:39;;;;;;;;;;;3.00;99.90;;;;;;5004537;28;20391;-73
2022/11/15 06:42:29;;;;;;;;;;;2.90;99.90;;;;;;5006581;28;20390;-75
2022/11/15 06:45:19;;;;;;;;;;;2.90;99.90;;;;;;5005679;28;19975;-74
2022/11/15 06:48:09;;;;;;;;;;;2.90;99.90;;;;;;5004381;28;20419;-75
2022/11/15 06:50:57;;;;;;;;;;;2.90;99.90;;;;;;5006075;28;20027;-74
2022/11/15 06:53:47;;;;;;;;;;;2.90;99.90;;;;;;5007625;28;19948;-75
2022/11/15 06:56:37;;;;;;;;;;;2.90;99.90;;;;;;5006820;28;19936;-74
2022/11/15 06:59:27;;;;;;;;;;;2.90;99.90;;;;;;5004375;28;20027;-74
2022/11/15 07:02:17;;;;;;;;;;;2.80;99.90;;;;;;5004078;28;19932;-75
2022/11/15 07:05:07;;;;;;;;;;;2.90;99.90;;;;;;5014144;28;20671;-74
2022/11/15 07:07:58;;;;;;;;;;;2.90;99.90;;;;;;5006722;28;20660;-76
2022/11/15 07:10:49;;;;;;;;;;;2.90;99.90;;;;;;5017531;28;19936;-74
2022/11/15 07:13:39;;;;;;;;;;;2.90;99.90;;;;;;5006723;28;20026;-74
2022/11/15 07:16:29;;;;;;;;;;;2.90;99.90;;;;;;5003565;28;20026;-75
2022/11/15 07:19:14;;;;;;;;;;;2.90;99.90;;;;;;5003923;28;19932;-75
2022/11/15 07:22:04;;;;;;;;;;;2.90;99.90;;;;;;5004797;28;19936;-74
2022/11/15 07:24:55;;;;;;;;;;;2.80;99.90;;;;;;5006989;28;19933;-74
2022/11/15 07:27:53;;;;;;;;;;;2.90;99.90;;;;;;5006152;28;20274;-76
2022/11/15 07:30:38;;;;;;;;;;;2.80;99.90;;;;;;5019753;28;19932;-75
2022/11/15 07:33:23;;;;;;;;;;;2.80;99.90;;;;;;5000321;28;19936;-75
2022/11/15 07:36:09;;;;;;;;;;;2.80;99.90;;;;;;5003913;28;19933;-73
2022/11/15 07:38:59;;;;;;;;;;;2.80;99.90;;;;;;5018778;28;20077;-75
2022/11/15 07:42:52;;;;;;;;;;;2.80;99.90;;;;;;5003680;28;19932;-72
2022/11/15 07:44:59;;;;;;;;;;;2.90;99.90;;;;;;5005807;28;19933;-75
2022/11/15 07:47:49;;;;;;;;;;;3.00;99.90;;;;;;5001854;28;19932;-74
2022/11/15 07:50:35;;;;;;;;;;;3.10;99.90;;;;;;5003148;28;19956;-75
2022/11/15 07:53:25;;;;;;;;;;;3.10;99.90;;;;;;5000193;28;19956;-74
2022/11/15 07:56:15;;;;;;;;;;;3.20;99.90;;;;;;5014321;28;20012;-75
2022/11/15 07:59:05;;;;;;;;;;;3.30;99.90;;;;;;4996854;28;19932;-73
2022/11/15 08:01:50;;;;;;;;;;;3.40;99.90;;;;;;5013849;28;19936;-73
2022/11/15 08:04:36;;;;;;;;;;;3.50;99.90;;;;;;5003701;28;20375;-75
2022/11/15 08:07:21;;;;;;;;;;;3.60;99.90;;;;;;5020012;28;20076;-73
2022/11/15 08:10:11;;;;;;;;;;;3.70;99.90;;;;;;5005176;28;20430;-80
2022/11/15 08:13:03;;;;;;;;;;;3.80;99.90;;;;;;5005940;28;19937;-75
2022/11/15 08:15:57;;;;;;;;;;;3.80;99.90;;;;;;4999889;28;20020;-75
2022/11/15 08:18:42;;;;;;;;;;;3.90;99.90;;;;;;5002737;28;19932;-75
2022/11/15 08:21:32;;;;;;;;;;;4.00;99.90;;;;;;5004806;28;20007;-75
2022/11/15 08:24:17;;;;;;;;;;;4.00;99.90;;;;;;5005927;28;20292;-75
2022/11/15 08:27:14;;;;;;;;;;;4.10;99.90;;;;;;5016096;28;19999;-75
2022/11/15 08:30:04;;;;;;;;;;;4.10;99.90;;;;;;5018387;28;20395;-74
2022/11/15 08:32:57;;;;;;;;;;;4.20;99.90;;;;;;5003135;28;19940;-73
2022/11/15 08:35:48;;;;;;;;;;;4.20;99.90;;;;;;5017111;28;19932;-74
2022/11/15 08:38:38;;;;;;;;;;;4.30;99.90;;;;;;5001885;28;19940;-73
2022/11/15 08:41:33;;;;;;;;;;;4.40;99.90;;;;;;5006183;28;19933;-75
2022/11/15 08:44:23;;;;;;;;;;;4.40;99.90;;;;;;5003645;28;20011;-74
2022/11/15 08:47:14;;;;;;;;;;;4.50;99.90;;;;;;5002013;28;20019;-73
2022/11/15 08:50:04;;;;;;;;;;;4.60;99.90;;;;;;5023622;28;19931;-73
2022/11/15 08:52:54;;;;;;;;;;;4.60;99.90;;;;;;5027754;28;20062;-74
2022/11/15 08:55:40;;;;;;;;;;;4.70;99.90;;;;;;5024525;28;19932;-74
2022/11/15 08:58:30;;;;;;;;;;;4.70;99.90;;;;;;5010737;28;19932;-73
2022/11/15 09:01:21;;;;;;;;;;;4.80;99.90;;;;;;5014166;28;20018;-73
2022/11/15 09:04:11;;;;;;;;;;;4.80;99.90;;;;;;5010647;28;20019;-74
2022/11/15 09:06:56;;;;;;;;;;;4.90;99.90;;;;;;4990711;28;19932;-72
2022/11/15 09:09:46;;;;;;;;;;;5.00;99.90;;;;;;5009150;28;19933;-74
2022/11/15 09:12:36;;;;;;;;;;;5.10;99.90;;;;;;5001073;28;20454;-75
2022/11/15 09:15:21;;;;;;;;;;;5.20;99.90;;;;;;5009410;28;20292;-75
2022/11/15 09:18:12;;;;;;;;;;;5.30;99.90;;;;;;5014853;28;19932;-73
2022/11/15 09:21:02;;;;;;;;;;;5.40;99.90;;;;;;5014606;28;19933;-72
2022/11/15 09:23:53;;;;;;;;;;;5.50;99.90;;;;;;5007455;28;20056;-75
2022/11/15 09:26:38;;;;;;;;;;;5.60;99.90;;;;;;5012301;28;20039;-73
2022/11/15 09:29:28;;;;;;;;;;;5.70;99.90;;;;;;5003087;28;19947;-75
2022/11/15 09:32:18;;;;;;;;;;;5.80;99.90;;;;;;4995043;28;19933;-74
2022/11/15 09:35:08;;;;;;;;;;;5.90;99.90;;;;;;5008461;28;19932;-75
2022/11/15 09:37:59;;;;;;;;;;;6.00;99.90;;;;;;5007194;28;19932;-76
2022/11/15 09:40:53;;;;;;;;;;;6.00;99.90;;;;;;5011272;28;19979;-75
2022/11/15 09:43:46;;;;;;;;;;;6.20;99.90;;;;;;5010961;28;19952;-76
2022/11/15 09:46:37;;;;;;;;;;;6.30;99.90;;;;;;5024412;28;20031;-76
2022/11/15 09:49:22;;;;;;;;;;;6.30;99.90;;;;;;5024366;28;20307;-75
2022/11/15 09:52:21;;;;;;;;;;;6.40;99.90;;;;;;5014316;28;20388;-75
2022/11/15 09:54:49;;;;;;;;;;;6.50;99.90;;;;;;5013510;28;19933;-75
2022/11/15 09:57:30;;;;;;;;;;;6.60;99.90;;;;;;5020206;28;19926;-74
2022/11/15 10:00:02;;;;;;;;;;;6.70;99.90;;;;;;5026324;28;19929;-75
2022/11/15 10:02:47;;;;;;;;;;;6.80;99.90;;;;;;5027616;28;20334;-75
2022/11/15 10:05:16;;;;;;;;;;;6.80;99.90;;;;;;5028115;28;20380;-75
2022/11/15 10:08:06;;;;;;;;;;;6.90;99.90;;;;;;5007143;28;19926;-75
2022/11/15 10:10:39;;;;;;;;;;;7.00;99.90;;;;;;5014475;28;19925;-75
2022/11/15 10:13:12;;;;;;;;;;;7.10;99.90;;;;;;5008497;28;19933;-75
2022/11/15 10:15:45;;;;;;;;;;;7.20;99.90;;;;;;5009694;28;19926;-75
2022/11/15 10:18:18;;;;;;;;;;;7.30;99.90;;;;;;5010610;28;19930;-75
2022/11/15 10:20:49;;;;;;;;;;;7.40;99.90;;;;;;5024487;28;19992;-76
2022/11/15 10:23:22;;;;;;;;;;;7.40;99.90;;;;;;5001999;28;19929;-74
2022/11/15 10:25:53;;;;;;;;;;;7.50;99.90;;;;;;4990042;28;20351;-75
2022/11/15 10:28:27;;;;;;;;;;;7.60;99.90;;;;;;5009430;28;19975;-76
2022/11/15 10:31:00;;;;;;;;;;;7.60;99.90;;;;;;5000676;28;19926;-74
2022/11/15 10:33:33;;;;;;;;;;;7.70;99.90;;;;;;4999359;28;19933;-74
2022/11/15 10:36:16;;;;;;;;;;;7.80;99.90;;;;;;5006623;28;20018;-75
2022/11/15 10:38:49;;;;;;;;;;;7.90;99.90;;;;;;5019143;28;20017;-76
2022/11/15 10:41:27;;;;;;;;;;;8.00;99.90;;;;;;5006953;28;19929;-75
2022/11/15 10:44:17;;;;;;;;;;;8.00;99.90;;;;;;5005936;28;19987;-73
2022/11/15 10:46:54;;;;;;;;;;;8.00;99.90;;;;;;4999874;28;19973;-74
2022/11/15 10:49:28;;;;;;;;;;;8.10;99.90;;;;;;5023990;28;19926;-74
2022/11/15 10:52:00;;;;;;;;;;;8.20;99.90;;;;;;5005344;28;19934;-74
2022/11/15 10:54:35;;;;;;;;;;;8.30;99.90;;;;;;4983994;28;19952;-75
2022/11/15 10:57:10;;;;;;;;;;;8.30;99.90;;;;;;5001979;28;19933;-75
2022/11/15 10:59:45;;;;;;;;;;;8.40;99.90;;;;;;5001235;28;19957;-73
2022/11/15 11:02:26;;;;;;;;;;;8.50;99.90;;;;;;5003296;28;19925;-74
2022/11/15 11:04:53;;;;;;;;;;;8.60;99.90;;;;;;5004175;28;19925;-75
2022/11/15 11:07:26;;;;;;;;;;;8.70;99.90;;;;;;5002736;28;19926;-74
2022/11/15 11:10:00;;;;;;;;;;;8.80;99.90;;;;;;5022626;28;19925;-76
2022/11/15 11:12:32;;;;;;;;;;;8.90;99.90;;;;;;5000425;28;19925;-76
2022/11/15 11:15:11;;;;;;;;;;;8.90;99.90;;;;;;5007148;28;19925;-75
2022/11/15 11:17:58;;;;;;;;;;;9.00;99.90;;;;;;4992789;28;20355;-74
2022/11/15 11:20:38;;;;;;;;;;;9.00;99.90;;;;;;5003213;28;19925;-74
2022/11/15 11:23:20;;;;;;;;;;;9.10;99.90;;;;;;5000298;28;19929;-76
2022/11/15 11:26:15;;;;;;;;;;;9.20;99.90;;;;;;4999247;28;19925;-76
2022/11/15 11:29:08;;;;;;;;;;;9.30;99.90;;;;;;5020701;28;20668;-73
2022/11/15 11:31:41;;;;;;;;;;;9.40;99.90;;;;;;5021314;28;20419;-74
2022/11/15 11:34:34;;;;;;;;;;;9.50;99.90;;;;;;5004650;28;20277;-75
2022/11/15 11:37:17;;;;;;;;;;;9.60;99.90;;;;;;5007873;28;19933;-70
2022/11/15 11:39:49;;;;;;;;;;;9.70;99.90;;;;;;5000663;28;20348;-72
2022/11/15 11:42:41;;;;;;;;;;;9.80;99.90;;;;;;5009274;28;19936;-74
2022/11/15 11:45:26;;;;;;;;;;;9.90;99.90;;;;;;4974701;28;19972;-73
2022/11/15 11:47:58;;;;;;;;;;;9.90;99.90;;;;;;5022113;28;19980;-75
2022/11/15 11:50:31;;;;;;;;;;;10.00;99.90;;;;;;5006229;28;20007;-74
2022/11/15 11:53:00;;;;;;;;;;;10.10;99.90;;;;;;5027159;28;19932;-73
2022/11/15 11:55:52;;;;;;;;;;;10.20;99.90;;;;;;5023544;28;19926;-73
2022/11/15 11:58:22;;;;;;;;;;;10.20;99.90;;;;;;5009654;28;19926;-73
2022/11/15 12:00:55;;;;;;;;;;;10.30;99.90;;;;;;5021570;28;19991;-73
2022/11/15 12:03:38;;;;;;;;;;;10.40;99.90;;;;;;5000762;28;19937;-75
2022/11/15 12:06:23;;;;;;;;;;;10.50;99.90;;;;;;5019706;28;19925;-75
2022/11/15 12:08:50;;;;;;;;;;;10.60;99.90;;;;;;4984836;28;19926;-72
2022/11/15 12:11:27;;;;;;;;;;;10.70;99.90;;;;;;5022461;28;19975;-73
2022/11/15 12:14:01;;;;;;;;;;;10.80;99.90;;;;;;5008429;28;19930;-74
2022/11/15 12:16:33;;;;;;;;;;;10.80;99.90;;;;;;5026433;28;20571;-72
2022/11/15 12:19:04;;;;;;;;;;;10.80;99.90;;;;;;5012630;28;19971;-73
2022/11/15 12:21:43;;;;;;;;;;;10.90;99.90;;;;;;5011643;28;19979;-74
2022/11/15 12:24:19;;;;;;;;;;;10.90;99.90;;;;;;5011265;28;19930;-72
2022/11/15 12:26:54;;;;;;;;;;;11.00;99.90;;;;;;5020452;28;19979;-74
2022/11/15 12:29:33;;;;;;;;;;;11.10;99.90;;;;;;5010757;28;19976;-75
2022/11/15 12:32:11;;;;;;;;;;;11.20;99.90;;;;;;5020211;28;19929;-76
2022/11/15 12:34:44;;;;;;;;;;;11.20;99.90;;;;;;5008835;28;20380;-74
2022/11/15 12:37:33;;;;;;;;;;;11.20;99.90;;;;;;5010605;28;20011;-76
2022/11/15 12:40:24;;;;;;;;;;;11.30;99.90;;;;;;5011945;28;20296;-72
2022/11/15 12:43:04;;;;;;;;;;;11.30;99.90;;;;;;5012355;28;20399;-74
2022/11/15 12:45:33;;;;;;;;;;;11.40;99.90;;;;;;5006606;28;20008;-72
2022/11/15 12:48:16;;;;;;;;;;;11.50;99.90;;;;;;5025745;28;20281;-72
2022/11/15 12:50:58;;;;;;;;;;;11.50;99.90;;;;;;4992218;28;19926;-74
2022/11/15 12:53:31;;;;;;;;;;;11.60;99.90;;;;;;5008498;28;19933;-74
2022/11/15 12:56:08;;;;;;;;;;;11.60;99.90;;;;;;5008753;28;19956;-78
2022/11/15 12:58:48;;;;;;;;;;;11.80;99.90;;;;;;5024312;28;19929;-74
2022/11/15 13:01:32;;;;;;;;;;;11.80;99.90;;;;;;5006286;28;19929;-77
2022/11/15 13:04:08;;;;;;;;;;;11.80;99.90;;;;;;4992419;28;20943;-75
2022/11/15 13:06:41;;;;;;;;;;;11.70;99.90;;;;;;5009917;28;19988;-74
2022/11/15 13:09:27;;;;;;;;;;;11.60;99.90;;;;;;5023994;28;19980;-72
2022/11/15 13:12:09;;;;;;;;;;;11.50;99.90;;;;;;5004203;28;19932;-73
2022/11/15 13:14:45;;;;;;;;;;;11.50;99.90;;;;;;5022721;28;19930;-75
2022/11/15 13:17:24;;;;;;;;;;;11.50;99.90;;;;;;5009729;28;19926;-74
2022/11/15 13:19:59;;;;;;;;;;;11.50;99.90;;;;;;5018369;28;20396;-74
2022/11/15 13:22:51;;;;;;;;;;;11.50;99.90;;;;;;5005720;28;20336;-75
2022/11/15 13:25:41;;;;;;;;;;;11.60;99.90;;;;;;5019911;28;19996;-76
2022/11/15 13:28:19;;;;;;;;;;;11.60;99.90;;;;;;5005753;28;20408;-75
2022/11/15 13:30:54;;;;;;;;;;;11.60;99.90;;;;;;5019399;28;20396;-75
2022/11/15 13:33:30;;;;;;;;;;;11.60;99.90;;;;;;5002524;28;19929;-74
2022/11/15 13:36:22;;;;;;;;;;;11.60;99.90;;;;;;5006149;28;19933;-74
2022/11/15 13:38:54;;;;;;;;;;;11.60;99.90;;;;;;5009521;28;19926;-73
2022/11/15 13:41:22;;;;;;;;;;;11.50;99.90;;;;;;5021871;28;19934;-72
2022/11/15 13:43:54;;;;;;;;;;;11.50;99.90;;;;;;5020626;28;19932;-73
2022/11/15 13:46:27;;;;;;;;;;;11.50;99.90;;;;;;5004298;28;19929;-75
2022/11/15 13:48:59;;;;;;;;;;;11.40;99.90;;;;;;5018001;28;19952;-74
2022/11/15 13:51:28;;;;;;;;;;;11.40;99.90;;;;;;5018855;28;20459;-72
2022/11/15 13:54:18;;;;;;;;;;;11.40;99.90;;;;;;5016327;28;19929;-75
2022/11/15 13:56:55;;;;;;;;;;;11.40;99.90;;;;;;5012211;28;20574;-73
2022/11/15 13:59:26;;;;;;;;;;;11.40;99.90;;;;;;5001550;28;19929;-75
2022/11/15 14:02:00;;;;;;;;;;;11.20;99.90;;;;;;5008467;28;19925;-76
2022/11/15 14:04:29;;;;;;;;;;;11.00;99.90;;;;;;4991725;28;20142;-74
2022/11/15 14:07:01;;;;;;;;;;;10.90;99.90;;;;;;5025644;28;19961;-75
2022/11/15 14:09:35;;;;;;;;;;;10.80;99.90;;;;;;5009450;28;19925;-75
2022/11/15 14:12:26;;;;;;;;;;;10.80;99.90;;;;;;5010999;28;20367;-73
2022/11/15 14:14:53;;;;;;;;;;;10.70;99.90;;;;;;5016677;28;19925;-77
2022/11/15 14:17:29;;;;;;;;;;;10.70;99.90;;;;;;5019126;28;19968;-75
2022/11/15 14:19:56;;;;;;;;;;;10.60;99.90;;;;;;5015592;28;20303;-73
2022/11/15 14:22:29;;;;;;;;;;;10.60;99.90;;;;;;5012302;28;19997;-74
2022/11/15 14:25:07;;;;;;;;;;;10.50;99.90;;;;;;5011925;28;19987;-74
2022/11/15 14:27:40;;;;;;;;;;;10.50;99.90;;;;;;5008390;28;19925;-74
2022/11/15 14:30:12;;;;;;;;;;;10.50;99.90;;;;;;5013570;28;20402;-73
2022/11/15 14:32:43;;;;;;;;;;;10.40;99.90;;;;;;5013592;28;19929;-73
2022/11/15 14:35:19;;;;;;;;;;;10.30;99.90;;;;;;5030248;28;19952;-74
2022/11/15 14:37:50;;;;;;;;;;;10.20;99.90;;;;;;5020895;28;20743;-74
2022/11/15 14:40:18;;;;;;;;;;;10.20;99.90;;;;;;5030111;28;19933;-74
2022/11/15 14:42:50;;;;;;;;;;;10.10;99.90;;;;;;5013191;28;20340;-75
2022/11/15 14:45:22;;;;;;;;;;;10.10;99.90;;;;;;5012058;28;19979;-73
2022/11/15 14:47:53;;;;;;;;;;;10.10;99.90;;;;;;5014384;28;20500;-73
2022/11/15 14:50:20;;;;;;;;;;;10.10;99.90;;;;;;5028768;28;20351;-73
2022/11/15 14:52:52;;;;;;;;;;;10.00;99.90;;;;;;5013365;28;19996;-72
2022/11/15 14:55:25;;;;;;;;;;;10.00;99.90;;;;;;5029319;28;19926;-75
2022/11/15 14:57:57;;;;;;;;;;;9.90;99.90;;;;;;5012833;28;19988;-73
2022/11/15 15:00:29;;;;;;;;;;;9.90;99.90;;;;;;5012907;28;19925;-73
2022/11/15 15:02:56;;;;;;;;;;;9.80;99.90;;;;;;5028378;28;20349;-73
2022/11/15 15:05:32;;;;;;;;;;;9.80;99.90;;;;;;5026712;28;19934;-73
2022/11/15 15:08:04;;;;;;;;;;;9.70;99.90;;;;;;5012743;28;19932;-74
2022/11/15 15:10:37;;;;;;;;;;;9.70;99.90;;;;;;5012865;28;19945;-72
2022/11/15 15:13:28;;;;;;;;;;;9.60;99.90;;;;;;5008351;28;19984;-73
2022/11/15 15:16:00;;;;;;;;;;;9.50;99.90;;;;;;5002159;28;19925;-74
2022/11/15 15:18:26;;;;;;;;;;;9.50;99.90;;;;;;5028847;28;20016;-74
2022/11/15 15:20:56;;;;;;;;;;;9.40;99.90;;;;;;5012715;28;19926;-73
2022/11/15 15:23:30;;;;;;;;;;;9.40;99.90;;;;;;5013768;28;19929;-73
2022/11/15 15:26:02;;;;;;;;;;;9.30;99.90;;;;;;5011628;28;19926;-73
2022/11/15 15:28:29;;;;;;;;;;;9.30;99.90;;;;;;5009731;28;20024;-74
2022/11/15 15:31:01;;;;;;;;;;;9.20;99.90;;;;;;5013559;28;19926;-73
2022/11/15 15:33:33;;;;;;;;;;;9.20;99.90;;;;;;5012357;28;19980;-73
2022/11/15 15:36:04;;;;;;;;;;;9.10;99.90;;;;;;5020349;28;20384;-75
2022/11/15 15:38:36;;;;;;;;;;;9.10;99.90;;;;;;5011675;28;19926;-74
2022/11/15 15:41:09;;;;;;;;;;;9.10;99.90;;;;;;5028361;28;19929;-74
2022/11/15 15:43:41;;;;;;;;;;;9.00;99.90;;;;;;5047153;28;19929;-74
2022/11/15 15:46:10;;;;;;;;;;;9.00;99.90;;;;;;5020611;28;19932;-74
2022/11/15 15:48:42;;;;;;;;;;;9.00;99.90;;;;;;5008821;28;19930;-73
2022/11/15 15:51:14;;;;;;;;;;;9.00;99.90;;;;;;5018872;28;19925;-73
2022/11/15 15:53:45;;;;;;;;;;;9.00;99.90;;;;;;4993492;28;19933;-75
2022/11/15 15:56:17;;;;;;;;;;;8.90;99.90;;;;;;5005230;28;19934;-74
2022/11/15 15:58:49;;;;;;;;;;;8.90;99.90;;;;;;5022343;28;19926;-75
2022/11/15 16:01:20;;;;;;;;;;;8.80;99.90;;;;;;5009776;28;19926;-72
2022/11/15 16:03:47;;;;;;;;;;;8.80;99.90;;;;;;5001124;28;19933;-76
2022/11/15 16:06:32;;;;;;;;;;;8.70;99.90;;;;;;5008849;28;19926;-71
2022/11/15 16:09:04;;;;;;;;;;;8.70;99.90;;;;;;5001344;28;19991;-74
2022/11/15 16:11:35;;;;;;;;;;;8.80;99.90;;;;;;5016728;28;19926;-74
2022/11/15 16:14:08;;;;;;;;;;;8.70;99.90;;;;;;4997819;28;19929;-74
2022/11/15 16:16:35;;;;;;;;;;;8.80;99.90;;;;;;5010183;28;19926;-74
2022/11/15 16:19:08;;;;;;;;;;;8.80;99.90;;;;;;5021572;28;19929;-74
2022/11/15 16:21:40;;;;;;;;;;;8.70;99.90;;;;;;4999526;28;19926;-72